createdAt,value
2022-08-19T00:00:23.736Z,18.02
2022-08-19T00:03:10.991Z,18.80
2022-08-19T00:05:58.263Z,17.35
2022-08-19T00:08:46.101Z,18.12
2022-08-19T00:11:34.148Z,17.75
2022-08-19T00:14:22.846Z,16.82
2022-08-19T00:17:11.011Z,17.00
2022-08-19T00:19:58.656Z,16.32
2022-08-19T00:22:48.220Z,16.73
2022-08-19T00:25:37.267Z,16.70
2022-08-19T00:28:24.778Z,17.02
2022-08-19T00:31:12.110Z,16.00
2022-08-19T00:34:00.042Z,16.00
2022-08-19T00:36:48.745Z,16.55
2022-08-19T00:39:36.073Z,15.05
2022-08-19T00:42:24.074Z,15.48
2022-08-19T00:45:15.116Z,15.45
2022-08-19T00:48:04.565Z,14.43
2022-08-19T00:50:54.042Z,14.65
2022-08-19T00:53:41.560Z,14.28
2022-08-19T00:56:29.705Z,13.93
2022-08-19T00:59:53.402Z,14.35
2022-08-19T01:02:07.588Z,14.23
2022-08-19T01:04:55.126Z,13.83
2022-08-19T01:07:42.994Z,13.48
2022-08-19T01:10:36.631Z,13.38
2022-08-19T01:13:25.429Z,13.45
2022-08-19T01:16:13.912Z,14.00
2022-08-19T01:19:02.232Z,13.30
2022-08-19T01:22:01.350Z,13.30
2022-08-19T01:24:50.477Z,12.60
2022-08-19T01:27:42.187Z,12.93
2022-08-19T01:30:34.535Z,13.25
2022-08-19T01:33:22.349Z,13.28
2022-08-19T01:36:19.002Z,12.80
2022-08-19T01:39:09.905Z,12.58
2022-08-19T01:41:57.476Z,12.78
2022-08-19T01:44:44.962Z,12.88
2022-08-19T01:47:32.307Z,12.50
2022-08-19T01:50:19.832Z,12.73
2022-08-19T01:53:11.495Z,12.78
2022-08-19T01:55:59.479Z,12.93
2022-08-19T01:58:55.379Z,12.50
2022-08-19T02:01:42.994Z,12.73
2022-08-19T02:04:30.342Z,11.97
2022-08-19T02:07:19.445Z,12.65
2022-08-19T02:10:12.353Z,11.90
2022-08-19T02:12:58.345Z,11.68
2022-08-19T02:15:45.647Z,12.15
2022-08-19T02:18:34.591Z,11.60
2022-08-19T02:21:23.734Z,11.40
2022-08-19T02:24:13.096Z,11.95
2022-08-19T02:27:00.890Z,10.80
2022-08-19T02:29:49.768Z,11.15
2022-08-19T02:32:37.281Z,10.90
2022-08-19T02:35:27.174Z,10.93
2022-08-19T02:38:27.648Z,11.15
2022-08-19T02:41:21.403Z,11.30
2022-08-19T02:44:30.112Z,9.95
2022-08-19T02:46:59.136Z,10.65
2022-08-19T02:49:49.332Z,10.40
2022-08-19T02:52:37.035Z,10.05
2022-08-19T02:55:24.368Z,9.35
2022-08-19T02:58:12.084Z,10.70
2022-08-19T03:00:59.867Z,10.20
2022-08-19T03:03:48.563Z,9.50
2022-08-19T03:06:39.391Z,10.10
2022-08-19T03:09:26.731Z,10.32
2022-08-19T03:12:14.257Z,10.28
2022-08-19T03:15:01.721Z,10.20
2022-08-19T03:17:49.388Z,9.90
2022-08-19T03:20:45.828Z,9.55
2022-08-19T03:23:33.144Z,8.90
2022-08-19T03:26:20.720Z,9.40
2022-08-19T03:29:09.588Z,8.95
2022-08-19T03:31:59.585Z,9.15
2022-08-19T03:34:46.877Z,8.60
2022-08-19T03:37:35.876Z,9.18
2022-08-19T03:40:23.465Z,8.43
2022-08-19T03:43:10.933Z,8.68
2022-08-19T03:46:11.456Z,8.93
2022-08-19T03:49:00.739Z,8.55
2022-08-19T03:51:51.174Z,8.53
2022-08-19T03:54:40.084Z,8.20
2022-08-19T03:57:32.201Z,8.65
2022-08-19T04:00:17.500Z,8.88
2022-08-19T04:03:04.812Z,8.38
2022-08-19T04:05:52.478Z,8.10
2022-08-19T04:08:41.292Z,8.40
2022-08-19T04:11:43.389Z,9.00
2022-08-19T04:14:24.012Z,8.78
2022-08-19T04:17:13.055Z,9.15
2022-08-19T04:20:01.297Z,9.30
2022-08-19T04:22:49.926Z,9.58
2022-08-19T04:25:43.332Z,9.00
2022-08-19T04:28:30.827Z,8.95
2022-08-19T04:31:22.215Z,9.23
2022-08-19T04:34:12.725Z,9.45
2022-08-19T04:37:00.817Z,8.85
2022-08-19T04:40:06.587Z,9.18
2022-08-19T04:42:55.210Z,9.53
2022-08-19T04:45:43.965Z,9.00
2022-08-19T04:48:31.949Z,8.60
2022-08-19T04:51:21.539Z,8.43
2022-08-19T04:54:09.478Z,9.10
2022-08-19T04:56:56.959Z,8.55
2022-08-19T04:59:44.282Z,8.33
2022-08-19T05:02:31.661Z,8.33
2022-08-19T05:05:19.075Z,8.13
2022-08-19T05:08:07.988Z,7.80
2022-08-19T05:10:55.378Z,8.05
2022-08-19T05:13:44.270Z,8.08
2022-08-19T05:16:31.885Z,7.90
2022-08-19T05:19:37.160Z,7.12
2022-08-19T05:22:35.576Z,7.12
2022-08-19T05:25:25.621Z,7.47
2022-08-19T05:28:13.159Z,7.60
2022-08-19T05:31:00.767Z,6.90
2022-08-19T05:33:47.929Z,6.92
2022-08-19T05:36:40.144Z,6.28
2022-08-19T05:39:30.412Z,6.17
2022-08-19T05:42:17.865Z,5.50
2022-08-19T05:45:05.889Z,6.15
2022-08-19T05:47:53.226Z,6.15
2022-08-19T05:50:42.486Z,5.70
2022-08-19T05:53:29.732Z,4.72
2022-08-19T05:56:19.247Z,5.00
2022-08-19T05:59:12.456Z,5.22
2022-08-19T06:02:01.571Z,5.15
2022-08-19T06:04:49.040Z,5.03
2022-08-19T06:07:37.934Z,5.47
2022-08-19T06:10:25.280Z,4.92
2022-08-19T06:13:12.472Z,4.72
2022-08-19T06:15:59.725Z,4.17
2022-08-19T06:18:47.453Z,4.42
2022-08-19T06:21:36.881Z,4.15
2022-08-19T06:24:27.357Z,4.00
2022-08-19T06:27:15.000Z,3.95
2022-08-19T06:30:03.175Z,4.28
2022-08-19T06:32:50.981Z,4.05
2022-08-19T06:38:30.820Z,4.00
2022-08-19T06:41:18.391Z,3.52
2022-08-19T06:44:06.128Z,4.12
2022-08-19T06:46:55.055Z,3.80
2022-08-19T06:49:43.236Z,4.30
2022-08-19T06:52:38.414Z,4.33
2022-08-19T06:55:26.081Z,4.65
2022-08-19T06:58:13.562Z,4.47
2022-08-19T07:01:05.752Z,4.00
2022-08-19T07:03:52.477Z,3.85
2022-08-19T07:06:44.151Z,4.42
2022-08-19T07:09:29.399Z,4.08
2022-08-19T07:12:18.108Z,4.45
2022-08-19T07:15:10.292Z,4.12
2022-08-19T07:17:57.943Z,4.33
2022-08-19T07:20:45.577Z,4.60
2022-08-19T07:23:33.444Z,4.87
2022-08-19T07:26:28.015Z,5.00
2022-08-19T07:29:13.698Z,4.70
2022-08-19T07:32:03.008Z,4.60
2022-08-19T07:34:50.770Z,4.70
2022-08-19T07:37:40.100Z,4.78
2022-08-19T07:40:27.378Z,4.58
2022-08-19T07:43:17.960Z,4.45
2022-08-19T07:46:05.095Z,4.50
2022-08-19T07:48:53.640Z,5.30
2022-08-19T07:51:41.104Z,5.40
2022-08-19T07:54:31.292Z,5.05
2022-08-19T07:57:19.947Z,4.80
2022-08-19T08:00:08.280Z,5.47
2022-08-19T08:02:56.241Z,4.90
2022-08-19T08:06:02.438Z,5.15
2022-08-19T08:08:51.307Z,6.78
2022-08-19T08:11:50.681Z,6.53
2022-08-19T08:14:44.141Z,5.55
2022-08-19T08:17:48.550Z,6.08
2022-08-19T08:20:21.899Z,6.20
2022-08-19T08:23:25.926Z,6.20
2022-08-19T08:26:14.923Z,5.67
2022-08-19T08:29:12.276Z,5.85
2022-08-19T08:31:58.504Z,5.33
2022-08-19T08:34:42.309Z,5.97
2022-08-19T08:37:29.819Z,5.78
2022-08-19T08:40:32.141Z,5.90
2022-08-19T08:43:37.435Z,5.75
2022-08-19T08:46:31.316Z,6.10
2022-08-19T08:49:31.816Z,5.53
2022-08-19T08:52:32.069Z,5.83
2022-08-19T08:55:23.563Z,5.35
2022-08-19T08:58:15.473Z,6.08
2022-08-19T09:01:02.631Z,6.12
2022-08-19T09:03:49.922Z,5.45
2022-08-19T09:06:53.633Z,6.53
2022-08-19T09:09:44.243Z,6.28
2022-08-19T09:12:57.085Z,5.87
2022-08-19T09:15:51.051Z,6.08
2022-08-19T09:18:48.004Z,6.40
2022-08-19T09:21:36.060Z,6.65
2022-08-19T09:24:23.483Z,6.85
2022-08-19T09:27:18.730Z,7.58
2022-08-19T09:30:01.139Z,7.22
2022-08-19T09:32:52.827Z,6.83
2022-08-19T09:35:50.004Z,6.47
2022-08-19T09:38:26.924Z,6.58
2022-08-19T09:41:17.085Z,6.75
2022-08-19T09:44:05.524Z,6.03
2022-08-19T09:46:53.360Z,6.00
2022-08-19T09:49:42.035Z,7.83
2022-08-19T09:52:32.474Z,6.25
2022-08-19T09:55:18.624Z,7.03
2022-08-19T09:58:06.176Z,7.90
2022-08-19T10:00:54.525Z,7.22
2022-08-19T10:03:41.778Z,7.40
2022-08-19T10:06:38.236Z,7.42
2022-08-19T10:09:33.786Z,7.92
2022-08-19T10:12:11.574Z,8.65
2022-08-19T10:14:59.146Z,9.45
2022-08-19T10:17:48.266Z,7.83
2022-08-19T10:20:36.732Z,8.75
2022-08-19T10:23:25.707Z,8.28
2022-08-19T10:26:15.935Z,8.70
2022-08-19T10:29:03.924Z,8.60
2022-08-19T10:31:59.775Z,7.92
2022-08-19T10:34:48.638Z,8.03
2022-08-19T10:37:31.651Z,9.05
2022-08-19T10:40:20.033Z,8.78
2022-08-19T10:43:07.330Z,8.83
2022-08-19T10:45:57.723Z,8.60
2022-08-19T10:48:45.924Z,9.10
2022-08-19T10:51:52.278Z,8.70
2022-08-19T10:54:58.247Z,9.50
2022-08-19T10:58:01.665Z,8.73
2022-08-19T11:00:36.257Z,7.72
2022-08-19T11:03:26.175Z,8.43
2022-08-19T11:06:13.826Z,9.25
2022-08-19T11:09:01.216Z,8.70
2022-08-19T11:11:48.997Z,8.30
2022-08-19T11:14:36.610Z,9.50
2022-08-19T11:17:24.422Z,10.65
2022-08-19T11:20:14.670Z,10.18
2022-08-19T11:23:01.836Z,9.85
2022-08-19T11:25:51.960Z,10.85
2022-08-19T11:28:39.687Z,10.98
2022-08-19T11:31:29.856Z,10.75
2022-08-19T11:34:20.277Z,10.18
2022-08-19T11:37:09.463Z,10.10
2022-08-19T11:39:56.780Z,10.60
2022-08-19T11:42:57.227Z,9.73
2022-08-19T11:45:44.919Z,9.95
2022-08-19T11:48:32.209Z,8.45
2022-08-19T11:51:23.104Z,8.80
2022-08-19T11:54:11.050Z,9.68
2022-08-19T11:56:58.606Z,8.40
2022-08-19T11:59:51.580Z,8.70
2022-08-19T12:02:39.055Z,7.50
2022-08-19T12:05:26.687Z,7.78
2022-08-19T12:08:14.873Z,7.60
2022-08-19T12:11:02.327Z,8.30
2022-08-19T12:13:49.570Z,8.30
2022-08-19T12:16:42.256Z,8.73
2022-08-19T12:19:26.410Z,8.78
2022-08-19T12:22:13.790Z,7.25
2022-08-19T12:25:01.864Z,7.70
2022-08-19T12:27:57.243Z,8.43
2022-08-19T12:30:40.406Z,7.60
2022-08-19T12:33:29.319Z,6.60
2022-08-19T12:36:18.706Z,6.92
2022-08-19T12:39:07.508Z,6.47
2022-08-19T12:41:56.390Z,6.20
2022-08-19T12:44:45.693Z,6.17
2022-08-19T12:47:33.185Z,6.10
2022-08-19T12:50:22.294Z,6.42
2022-08-19T12:53:09.735Z,5.90
2022-08-19T12:56:21.158Z,5.33
2022-08-19T12:59:09.098Z,5.50
2022-08-19T13:01:56.424Z,5.15
2022-08-19T13:04:44.057Z,4.83
2022-08-19T13:07:33.251Z,5.22
2022-08-19T13:10:22.685Z,5.25
2022-08-19T13:13:12.271Z,5.37
2022-08-19T13:16:04.174Z,5.53
2022-08-19T13:18:54.876Z,4.97
2022-08-19T13:21:42.558Z,4.95
2022-08-19T13:24:33.543Z,4.90
2022-08-19T13:27:18.503Z,4.62
2022-08-19T13:30:25.288Z,4.60
2022-08-19T13:36:01.822Z,4.40
2022-08-19T13:38:50.666Z,4.12
2022-08-19T13:41:39.203Z,4.33
2022-08-19T13:44:27.329Z,4.17
2022-08-19T13:47:15.557Z,4.45
2022-08-19T13:50:05.349Z,4.55
2022-08-19T13:52:53.329Z,4.22
2022-08-19T13:55:43.870Z,4.45
2022-08-19T13:58:32.479Z,4.53
2022-08-19T14:01:24.875Z,4.65
2022-08-19T14:04:12.511Z,4.45
2022-08-19T14:07:00.259Z,4.45
2022-08-19T14:09:49.206Z,4.20
2022-08-19T14:12:36.801Z,4.17
2022-08-19T14:15:24.762Z,4.37
2022-08-19T14:18:14.337Z,4.15
2022-08-19T14:21:01.640Z,3.80
2022-08-19T14:23:49.440Z,4.05
2022-08-19T14:26:36.694Z,4.17
2022-08-19T14:29:24.268Z,3.80
2022-08-19T14:32:16.915Z,4.00
2022-08-19T14:35:03.422Z,4.17
2022-08-19T14:37:53.845Z,3.52
2022-08-19T14:40:41.614Z,4.10
2022-08-19T14:43:29.273Z,3.90
2022-08-19T14:46:20.366Z,3.98
2022-08-19T14:49:09.276Z,3.90
2022-08-19T14:51:57.501Z,4.00
2022-08-19T14:54:45.233Z,3.50
2022-08-19T14:57:32.374Z,3.83
2022-08-19T15:00:19.573Z,3.60
2022-08-19T15:03:07.061Z,3.65
2022-08-19T15:05:54.292Z,3.95
2022-08-19T15:08:44.038Z,3.87
2022-08-19T15:11:33.356Z,4.10
2022-08-19T15:14:21.863Z,3.80
2022-08-19T15:17:09.296Z,3.62
2022-08-19T15:19:57.103Z,3.47
2022-08-19T15:22:44.709Z,3.67
2022-08-19T15:25:33.259Z,3.40
2022-08-19T15:28:20.486Z,3.60
2022-08-19T15:31:08.440Z,3.83
2022-08-19T15:34:00.580Z,3.72
2022-08-19T15:36:47.829Z,3.70
2022-08-19T15:39:35.525Z,4.08
2022-08-19T15:42:30.052Z,3.72
2022-08-19T15:45:17.177Z,4.15
2022-08-19T15:48:06.000Z,4.10
2022-08-19T15:50:53.372Z,3.90
2022-08-19T15:53:42.431Z,4.42
2022-08-19T15:56:34.142Z,4.50
2022-08-19T15:59:40.835Z,4.92
2022-08-19T16:02:47.396Z,4.78
2022-08-19T16:05:52.961Z,4.83
2022-08-19T16:08:49.271Z,5.20
2022-08-19T16:11:39.435Z,5.50
2022-08-19T16:14:23.277Z,5.00
2022-08-19T16:17:12.624Z,4.80
2022-08-19T16:19:59.797Z,4.80
2022-08-19T16:22:47.053Z,4.55
2022-08-19T16:25:34.690Z,5.15
2022-08-19T16:28:22.731Z,5.03
2022-08-19T16:31:10.388Z,4.92
2022-08-19T16:33:58.527Z,4.60
2022-08-19T16:36:46.067Z,4.97
2022-08-19T16:39:33.635Z,5.08
2022-08-19T16:42:20.709Z,4.92
2022-08-19T16:45:08.927Z,4.95
2022-08-19T16:47:58.106Z,5.33
2022-08-19T16:50:49.600Z,5.40
2022-08-19T16:53:36.070Z,5.10
2022-08-19T16:56:25.411Z,4.87
2022-08-19T16:59:13.690Z,3.90
2022-08-19T17:02:01.509Z,3.70
2022-08-19T17:04:57.077Z,4.40
2022-08-19T17:07:37.464Z,4.95
2022-08-19T17:10:24.826Z,4.65
2022-08-19T17:13:15.184Z,4.83
2022-08-19T17:16:02.311Z,4.67
2022-08-19T17:18:51.310Z,5.60
2022-08-19T17:21:40.575Z,5.50
2022-08-19T17:24:28.053Z,5.85
2022-08-19T17:27:15.779Z,5.58
2022-08-19T17:30:05.554Z,5.60
2022-08-19T17:32:52.849Z,6.12
2022-08-19T17:35:43.633Z,5.72
2022-08-19T17:38:31.371Z,5.83
2022-08-19T17:41:19.160Z,6.10
2022-08-19T17:44:06.978Z,6.22
2022-08-19T17:46:56.217Z,6.47
2022-08-19T17:49:43.504Z,6.42
2022-08-19T17:52:31.134Z,6.47
2022-08-19T17:55:19.480Z,5.90
2022-08-19T17:58:08.014Z,6.08
2022-08-19T18:00:58.423Z,6.37
2022-08-19T18:03:45.950Z,6.47
2022-08-19T18:06:35.415Z,6.67
2022-08-19T18:09:24.787Z,5.80
2022-08-19T18:12:15.860Z,6.78
2022-08-19T18:15:05.022Z,6.78
2022-08-19T18:17:52.841Z,6.15
2022-08-19T18:20:40.133Z,6.65
2022-08-19T18:23:45.369Z,6.22
2022-08-19T18:26:16.213Z,6.62
2022-08-19T18:29:03.591Z,6.58
2022-08-19T18:31:50.912Z,6.28
2022-08-19T18:34:38.157Z,6.75
2022-08-19T18:37:26.524Z,6.92
2022-08-19T18:40:35.405Z,6.53
2022-08-19T18:43:40.919Z,6.58
2022-08-19T18:46:46.589Z,6.25
2022-08-19T18:49:35.187Z,6.85
2022-08-19T18:52:26.366Z,6.53
2022-08-19T18:55:15.349Z,6.90
2022-08-19T18:58:02.632Z,6.72
2022-08-19T19:00:50.300Z,6.67
2022-08-19T19:03:41.015Z,6.65
2022-08-19T19:06:33.712Z,6.37
2022-08-19T19:09:23.529Z,6.25
2022-08-19T19:12:12.448Z,7.10
2022-08-19T19:15:00.010Z,6.15
2022-08-19T19:17:47.322Z,6.05
2022-08-19T19:20:35.278Z,6.75
2022-08-19T19:23:24.535Z,6.60
2022-08-19T19:26:13.620Z,6.97
2022-08-19T19:29:01.283Z,6.90
2022-08-19T19:31:50.401Z,7.08
2022-08-19T19:34:41.696Z,6.78
2022-08-19T19:37:29.336Z,7.45
2022-08-19T19:40:16.958Z,6.97
2022-08-19T19:43:05.678Z,6.58
2022-08-19T19:45:53.654Z,7.20
2022-08-19T19:48:41.762Z,6.78
2022-08-19T19:51:30.013Z,7.53
2022-08-19T19:54:23.349Z,7.10
2022-08-19T19:57:07.935Z,7.10
2022-08-19T19:59:55.916Z,6.70
2022-08-19T20:02:50.093Z,6.60
2022-08-19T20:05:36.168Z,7.42
2022-08-19T20:08:41.482Z,6.92
2022-08-19T20:11:32.831Z,7.08
2022-08-19T20:14:23.403Z,7.58
2022-08-19T20:17:11.560Z,7.40
2022-08-19T20:19:59.175Z,7.58
2022-08-19T20:22:47.597Z,7.12
2022-08-19T20:25:35.169Z,6.58
2022-08-19T20:28:22.705Z,7.60
2022-08-19T20:31:11.316Z,6.60
2022-08-19T20:33:59.162Z,7.42
2022-08-19T20:36:46.758Z,6.08
2022-08-19T20:39:34.307Z,6.17
2022-08-19T20:42:21.926Z,6.20
2022-08-19T20:45:22.621Z,6.22
2022-08-19T20:48:02.192Z,6.40
2022-08-19T20:50:50.076Z,6.50
2022-08-19T20:53:37.875Z,6.67
2022-08-19T20:56:25.531Z,7.20
2022-08-19T20:59:12.946Z,6.55
2022-08-19T21:02:00.225Z,7.03
2022-08-19T21:04:48.901Z,6.33
2022-08-19T21:07:39.652Z,5.60
2022-08-19T21:10:28.365Z,4.97
2022-08-19T21:13:16.844Z,5.00
2022-08-19T21:16:05.268Z,4.40
2022-08-19T21:18:53.241Z,4.53
2022-08-19T21:21:40.656Z,4.55
2022-08-19T21:24:31.739Z,4.78
2022-08-19T21:27:17.013Z,4.75
2022-08-19T21:30:05.879Z,4.45
2022-08-19T21:32:54.331Z,4.40
2022-08-19T21:35:42.134Z,4.75
2022-08-19T21:38:29.683Z,4.90
2022-08-19T21:41:16.897Z,5.17
2022-08-19T21:44:04.376Z,5.12
2022-08-19T21:46:51.766Z,5.08
2022-08-19T21:49:39.062Z,4.80
2022-08-19T21:52:27.873Z,4.72
2022-08-19T21:55:17.199Z,4.60
2022-08-19T21:58:05.243Z,4.45
2022-08-19T22:00:52.831Z,4.50
2022-08-19T22:03:40.786Z,4.70
2022-08-19T22:06:28.469Z,4.30
2022-08-19T22:09:15.452Z,4.58
2022-08-19T22:12:03.027Z,4.42
2022-08-19T22:14:51.773Z,4.62
2022-08-19T22:17:40.014Z,4.60
2022-08-19T22:20:31.927Z,5.15
2022-08-19T22:23:19.027Z,4.20
2022-08-19T22:26:07.787Z,4.30
2022-08-19T22:28:55.007Z,4.00
2022-08-19T22:31:42.875Z,3.90
2022-08-19T22:34:30.001Z,4.05
2022-08-19T22:37:17.284Z,3.62
2022-08-19T22:40:05.863Z,3.55
2022-08-19T22:43:05.780Z,3.80
2022-08-19T22:45:55.409Z,3.72
2022-08-19T22:48:42.679Z,3.85
2022-08-19T22:51:48.535Z,3.90
2022-08-19T22:54:36.246Z,3.85
2022-08-19T22:57:23.734Z,3.60
2022-08-19T23:00:13.234Z,3.70
2022-08-19T23:03:02.081Z,3.98
2022-08-19T23:05:49.439Z,4.00
2022-08-19T23:08:39.729Z,3.45
2022-08-19T23:11:27.340Z,3.62
2022-08-19T23:14:16.786Z,3.62
2022-08-19T23:17:13.362Z,4.10
2022-08-19T23:20:00.936Z,3.40
2022-08-19T23:22:50.850Z,3.95
2022-08-19T23:25:38.778Z,3.92
2022-08-19T23:28:44.314Z,4.10
2022-08-19T23:31:31.628Z,3.83
2022-08-19T23:34:18.913Z,4.60
2022-08-19T23:37:07.395Z,4.17
2022-08-19T23:39:55.104Z,3.95
2022-08-19T23:42:45.673Z,4.10
2022-08-19T23:45:34.028Z,4.05
2022-08-19T23:48:21.309Z,3.95
2022-08-19T23:51:11.254Z,4.05
2022-08-19T23:53:58.746Z,4.12
2022-08-19T23:56:46.053Z,3.70
2022-08-19T23:59:33.689Z,3.47
